<?xml version="1.0" encoding="UTF-8" standalone="no" ?>
<gpx xmlns="http://www.topografix.com/GPX/1/1" xmlns:xsi="http://www.w3.org/2001/XMLSchema-instance" xsi:schemaLocation="http://www.topografix.com/GPX/1/1 http://www.topografix.com/GPX/1/1/gpx.xsd" version="1.1" creator="VisuGPX - https://www.visugpx.com">
  <metadata>
    <name>83-V-Villecroze</name>
    <desc><![CDATA[83-V-Villecroze : domaine St Jean - pont naturel]]></desc>
  </metadata>
  <trk>
    <name><![CDATA[2019-03-01-V-Villecroze  Villecroze]]></name>
    <trkseg>
      <trkpt lat="43.58354" lon="6.27547">
        <ele>353.1</ele>
        <time>2018-12-21T12:54:52Z</time>
      </trkpt>
      <trkpt lat="43.58354" lon="6.27547">
        <ele>353.1</ele>
        <time>2018-12-21T12:54:53Z</time>
      </trkpt>
      <trkpt lat="43.58363" lon="6.27541">
        <ele>354</ele>
        <time>2018-12-21T12:55:41Z</time>
      </trkpt>
      <trkpt lat="43.58364" lon="6.27554">
        <ele>354.7</ele>
        <time>2018-12-21T12:58:15Z</time>
      </trkpt>
      <trkpt lat="43.58369" lon="6.27564">
        <ele>354.6</ele>
        <time>2018-12-21T12:58:43Z</time>
      </trkpt>
      <trkpt lat="43.58376" lon="6.27573">
        <ele>354.6</ele>
        <time>2018-12-21T12:58:56Z</time>
      </trkpt>
      <trkpt lat="43.58384" lon="6.27581">
        <ele>354.6</ele>
        <time>2018-12-21T12:59:08Z</time>
      </trkpt>
      <trkpt lat="43.5839" lon="6.27592">
        <ele>354.6</ele>
        <time>2018-12-21T12:59:19Z</time>
      </trkpt>
      <trkpt lat="43.58396" lon="6.27602">
        <ele>354.8</ele>
        <time>2018-12-21T12:59:30Z</time>
      </trkpt>
      <trkpt lat="43.58402" lon="6.27612">
        <ele>354.9</ele>
        <time>2018-12-21T12:59:39Z</time>
      </trkpt>
      <trkpt lat="43.58409" lon="6.27621">
        <ele>354.9</ele>
        <time>2018-12-21T12:59:48Z</time>
      </trkpt>
      <trkpt lat="43.58415" lon="6.27633">
        <ele>354.9</ele>
        <time>2018-12-21T13:00:03Z</time>
      </trkpt>
      <trkpt lat="43.58421" lon="6.27643">
        <ele>355.2</ele>
        <time>2018-12-21T13:00:13Z</time>
      </trkpt>
      <trkpt lat="43.58429" lon="6.2765">
        <ele>355.6</ele>
        <time>2018-12-21T13:00:25Z</time>
      </trkpt>
      <trkpt lat="43.58436" lon="6.2766">
        <ele>355.5</ele>
        <time>2018-12-21T13:00:35Z</time>
      </trkpt>
      <trkpt lat="43.58443" lon="6.2767">
        <ele>356.1</ele>
        <time>2018-12-21T13:00:48Z</time>
      </trkpt>
      <trkpt lat="43.58452" lon="6.27679">
        <ele>357.4</ele>
        <time>2018-12-21T13:01:04Z</time>
      </trkpt>
      <trkpt lat="43.58459" lon="6.27687">
        <ele>357</ele>
        <time>2018-12-21T13:01:14Z</time>
      </trkpt>
      <trkpt lat="43.58461" lon="6.277">
        <ele>356.3</ele>
        <time>2018-12-21T13:01:27Z</time>
      </trkpt>
      <trkpt lat="43.58465" lon="6.27711">
        <ele>355.5</ele>
        <time>2018-12-21T13:02:12Z</time>
      </trkpt>
      <trkpt lat="43.58466" lon="6.27724">
        <ele>355.4</ele>
        <time>2018-12-21T13:04:22Z</time>
      </trkpt>
      <trkpt lat="43.5847" lon="6.27736">
        <ele>355.4</ele>
        <time>2018-12-21T13:04:41Z</time>
      </trkpt>
      <trkpt lat="43.58469" lon="6.2775">
        <ele>356.1</ele>
        <time>2018-12-21T13:04:52Z</time>
      </trkpt>
      <trkpt lat="43.58464" lon="6.27761">
        <ele>356.9</ele>
        <time>2018-12-21T13:05:04Z</time>
      </trkpt>
      <trkpt lat="43.58455" lon="6.27764">
        <ele>357.1</ele>
        <time>2018-12-21T13:05:12Z</time>
      </trkpt>
      <trkpt lat="43.58447" lon="6.27768">
        <ele>357.5</ele>
        <time>2018-12-21T13:05:23Z</time>
      </trkpt>
      <trkpt lat="43.58437" lon="6.27767">
        <ele>357.9</ele>
        <time>2018-12-21T13:05:31Z</time>
      </trkpt>
      <trkpt lat="43.58428" lon="6.27771">
        <ele>357.5</ele>
        <time>2018-12-21T13:05:42Z</time>
      </trkpt>
      <trkpt lat="43.58422" lon="6.2778">
        <ele>357.6</ele>
        <time>2018-12-21T13:05:50Z</time>
      </trkpt>
      <trkpt lat="43.58421" lon="6.27793">
        <ele>358.2</ele>
        <time>2018-12-21T13:06:02Z</time>
      </trkpt>
      <trkpt lat="43.58414" lon="6.27801">
        <ele>359.1</ele>
        <time>2018-12-21T13:06:32Z</time>
      </trkpt>
      <trkpt lat="43.58406" lon="6.27809">
        <ele>359.4</ele>
        <time>2018-12-21T13:06:54Z</time>
      </trkpt>
      <trkpt lat="43.58396" lon="6.27811">
        <ele>359.2</ele>
        <time>2018-12-21T13:07:09Z</time>
      </trkpt>
      <trkpt lat="43.58387" lon="6.27809">
        <ele>358.6</ele>
        <time>2018-12-21T13:07:21Z</time>
      </trkpt>
      <trkpt lat="43.58383" lon="6.27797">
        <ele>358.3</ele>
        <time>2018-12-21T13:07:30Z</time>
      </trkpt>
      <trkpt lat="43.58379" lon="6.27785">
        <ele>357.8</ele>
        <time>2018-12-21T13:07:40Z</time>
      </trkpt>
      <trkpt lat="43.58377" lon="6.27773">
        <ele>357.2</ele>
        <time>2018-12-21T13:07:50Z</time>
      </trkpt>
      <trkpt lat="43.58375" lon="6.2776">
        <ele>356.7</ele>
        <time>2018-12-21T13:07:59Z</time>
      </trkpt>
      <trkpt lat="43.58372" lon="6.27747">
        <ele>356.2</ele>
        <time>2018-12-21T13:08:07Z</time>
      </trkpt>
      <trkpt lat="43.58373" lon="6.27735">
        <ele>356</ele>
        <time>2018-12-21T13:08:16Z</time>
      </trkpt>
      <trkpt lat="43.58369" lon="6.27721">
        <ele>355.3</ele>
        <time>2018-12-21T13:08:28Z</time>
      </trkpt>
      <trkpt lat="43.58363" lon="6.27712">
        <ele>354.6</ele>
        <time>2018-12-21T13:08:34Z</time>
      </trkpt>
      <trkpt lat="43.58353" lon="6.27712">
        <ele>354.3</ele>
        <time>2018-12-21T13:08:43Z</time>
      </trkpt>
      <trkpt lat="43.58345" lon="6.27719">
        <ele>353.9</ele>
        <time>2018-12-21T13:08:52Z</time>
      </trkpt>
      <trkpt lat="43.58336" lon="6.27719">
        <ele>354.7</ele>
        <time>2018-12-21T13:09:02Z</time>
      </trkpt>
      <trkpt lat="43.58326" lon="6.27716">
        <ele>355.5</ele>
        <time>2018-12-21T13:09:11Z</time>
      </trkpt>
      <trkpt lat="43.58323" lon="6.27728">
        <ele>358.8</ele>
        <time>2018-12-21T13:09:29Z</time>
      </trkpt>
      <trkpt lat="43.58329" lon="6.27738">
        <ele>360</ele>
        <time>2018-12-21T13:09:38Z</time>
      </trkpt>
      <trkpt lat="43.58331" lon="6.27751">
        <ele>361.4</ele>
        <time>2018-12-21T13:09:49Z</time>
      </trkpt>
      <trkpt lat="43.58332" lon="6.27765">
        <ele>362.6</ele>
        <time>2018-12-21T13:10:01Z</time>
      </trkpt>
      <trkpt lat="43.5833" lon="6.27777">
        <ele>364.2</ele>
        <time>2018-12-21T13:10:12Z</time>
      </trkpt>
      <trkpt lat="43.58331" lon="6.2779">
        <ele>365.4</ele>
        <time>2018-12-21T13:10:21Z</time>
      </trkpt>
      <trkpt lat="43.58332" lon="6.27804">
        <ele>366.9</ele>
        <time>2018-12-21T13:10:31Z</time>
      </trkpt>
      <trkpt lat="43.58329" lon="6.27816">
        <ele>367.8</ele>
        <time>2018-12-21T13:10:39Z</time>
      </trkpt>
      <trkpt lat="43.58323" lon="6.27826">
        <ele>369.8</ele>
        <time>2018-12-21T13:10:49Z</time>
      </trkpt>
      <trkpt lat="43.58315" lon="6.27834">
        <ele>370.6</ele>
        <time>2018-12-21T13:10:58Z</time>
      </trkpt>
      <trkpt lat="43.58306" lon="6.2784">
        <ele>371.3</ele>
        <time>2018-12-21T13:11:07Z</time>
      </trkpt>
      <trkpt lat="43.58299" lon="6.27848">
        <ele>372</ele>
        <time>2018-12-21T13:11:18Z</time>
      </trkpt>
      <trkpt lat="43.58293" lon="6.27858">
        <ele>372.5</ele>
        <time>2018-12-21T13:11:30Z</time>
      </trkpt>
      <trkpt lat="43.58287" lon="6.27869">
        <ele>373.2</ele>
        <time>2018-12-21T13:11:40Z</time>
      </trkpt>
      <trkpt lat="43.58284" lon="6.27881">
        <ele>374.4</ele>
        <time>2018-12-21T13:11:50Z</time>
      </trkpt>
      <trkpt lat="43.58278" lon="6.27891">
        <ele>375.3</ele>
        <time>2018-12-21T13:11:58Z</time>
      </trkpt>
      <trkpt lat="43.58275" lon="6.27903">
        <ele>376.5</ele>
        <time>2018-12-21T13:12:08Z</time>
      </trkpt>
      <trkpt lat="43.58277" lon="6.27916">
        <ele>378</ele>
        <time>2018-12-21T13:12:20Z</time>
      </trkpt>
      <trkpt lat="43.58281" lon="6.27929">
        <ele>379.3</ele>
        <time>2018-12-21T13:12:30Z</time>
      </trkpt>
      <trkpt lat="43.5828" lon="6.27941">
        <ele>380</ele>
        <time>2018-12-21T13:12:58Z</time>
      </trkpt>
      <trkpt lat="43.5828" lon="6.27955">
        <ele>380.3</ele>
        <time>2018-12-21T13:13:11Z</time>
      </trkpt>
      <trkpt lat="43.58281" lon="6.27969">
        <ele>382</ele>
        <time>2018-12-21T13:13:24Z</time>
      </trkpt>
      <trkpt lat="43.58279" lon="6.27981">
        <ele>383.5</ele>
        <time>2018-12-21T13:13:35Z</time>
      </trkpt>
      <trkpt lat="43.58282" lon="6.27993">
        <ele>385.7</ele>
        <time>2018-12-21T13:13:49Z</time>
      </trkpt>
      <trkpt lat="43.5828" lon="6.28005">
        <ele>387.2</ele>
        <time>2018-12-21T13:14:01Z</time>
      </trkpt>
      <trkpt lat="43.58274" lon="6.28016">
        <ele>387.7</ele>
        <time>2018-12-21T13:14:11Z</time>
      </trkpt>
      <trkpt lat="43.58267" lon="6.28025">
        <ele>388.3</ele>
        <time>2018-12-21T13:14:21Z</time>
      </trkpt>
      <trkpt lat="43.58261" lon="6.28036">
        <ele>389.4</ele>
        <time>2018-12-21T13:14:32Z</time>
      </trkpt>
      <trkpt lat="43.58255" lon="6.28047">
        <ele>389.7</ele>
        <time>2018-12-21T13:14:40Z</time>
      </trkpt>
      <trkpt lat="43.58249" lon="6.28057">
        <ele>390.2</ele>
        <time>2018-12-21T13:14:58Z</time>
      </trkpt>
      <trkpt lat="43.58242" lon="6.28064">
        <ele>390.8</ele>
        <time>2018-12-21T13:15:08Z</time>
      </trkpt>
      <trkpt lat="43.58235" lon="6.28074">
        <ele>390.6</ele>
        <time>2018-12-21T13:15:20Z</time>
      </trkpt>
      <trkpt lat="43.58229" lon="6.28083">
        <ele>390</ele>
        <time>2018-12-21T13:15:30Z</time>
      </trkpt>
      <trkpt lat="43.58221" lon="6.28091">
        <ele>390.8</ele>
        <time>2018-12-21T13:15:43Z</time>
      </trkpt>
      <trkpt lat="43.58215" lon="6.28101">
        <ele>392.5</ele>
        <time>2018-12-21T13:15:59Z</time>
      </trkpt>
      <trkpt lat="43.58213" lon="6.28115">
        <ele>393.3</ele>
        <time>2018-12-21T13:16:12Z</time>
      </trkpt>
      <trkpt lat="43.58206" lon="6.28122">
        <ele>393.8</ele>
        <time>2018-12-21T13:16:21Z</time>
      </trkpt>
      <trkpt lat="43.58199" lon="6.28133">
        <ele>393.5</ele>
        <time>2018-12-21T13:16:31Z</time>
      </trkpt>
      <trkpt lat="43.58198" lon="6.28146">
        <ele>394.3</ele>
        <time>2018-12-21T13:16:45Z</time>
      </trkpt>
      <trkpt lat="43.58194" lon="6.28158">
        <ele>395</ele>
        <time>2018-12-21T13:16:59Z</time>
      </trkpt>
      <trkpt lat="43.58187" lon="6.28167">
        <ele>395.8</ele>
        <time>2018-12-21T13:17:12Z</time>
      </trkpt>
      <trkpt lat="43.58183" lon="6.28179">
        <ele>398</ele>
        <time>2018-12-21T13:17:31Z</time>
      </trkpt>
      <trkpt lat="43.58175" lon="6.28186">
        <ele>400.8</ele>
        <time>2018-12-21T13:17:52Z</time>
      </trkpt>
      <trkpt lat="43.58166" lon="6.28189">
        <ele>402.4</ele>
        <time>2018-12-21T13:18:05Z</time>
      </trkpt>
      <trkpt lat="43.58159" lon="6.28196">
        <ele>403.8</ele>
        <time>2018-12-21T13:18:17Z</time>
      </trkpt>
      <trkpt lat="43.5815" lon="6.28193">
        <ele>403.8</ele>
        <time>2018-12-21T13:18:38Z</time>
      </trkpt>
      <trkpt lat="43.58143" lon="6.28201">
        <ele>403.6</ele>
        <time>2018-12-21T13:22:06Z</time>
      </trkpt>
      <trkpt lat="43.58149" lon="6.28192">
        <ele>403.9</ele>
        <time>2018-12-21T13:22:42Z</time>
      </trkpt>
      <trkpt lat="43.5814" lon="6.28187">
        <ele>403.1</ele>
        <time>2018-12-21T13:24:09Z</time>
      </trkpt>
      <trkpt lat="43.58131" lon="6.2819">
        <ele>402.1</ele>
        <time>2018-12-21T13:24:26Z</time>
      </trkpt>
      <trkpt lat="43.58123" lon="6.28199">
        <ele>400.8</ele>
        <time>2018-12-21T13:24:41Z</time>
      </trkpt>
      <trkpt lat="43.58115" lon="6.28205">
        <ele>398.6</ele>
        <time>2018-12-21T13:24:59Z</time>
      </trkpt>
      <trkpt lat="43.58106" lon="6.28208">
        <ele>396.8</ele>
        <time>2018-12-21T13:25:15Z</time>
      </trkpt>
      <trkpt lat="43.58107" lon="6.28221">
        <ele>396.5</ele>
        <time>2018-12-21T13:25:38Z</time>
      </trkpt>
      <trkpt lat="43.58107" lon="6.28234">
        <ele>392</ele>
        <time>2018-12-21T13:26:29Z</time>
      </trkpt>
      <trkpt lat="43.58109" lon="6.28246">
        <ele>389.2</ele>
        <time>2018-12-21T13:26:56Z</time>
      </trkpt>
      <trkpt lat="43.58111" lon="6.28258">
        <ele>387</ele>
        <time>2018-12-21T13:27:19Z</time>
      </trkpt>
      <trkpt lat="43.58105" lon="6.28268">
        <ele>382.8</ele>
        <time>2018-12-21T13:28:41Z</time>
      </trkpt>
      <trkpt lat="43.58099" lon="6.28278">
        <ele>379.5</ele>
        <time>2018-12-21T13:29:29Z</time>
      </trkpt>
      <trkpt lat="43.58099" lon="6.28291">
        <ele>377.6</ele>
        <time>2018-12-21T13:29:51Z</time>
      </trkpt>
      <trkpt lat="43.58096" lon="6.28303">
        <ele>378.2</ele>
        <time>2018-12-21T13:30:29Z</time>
      </trkpt>
      <trkpt lat="43.58094" lon="6.28315">
        <ele>379.3</ele>
        <time>2018-12-21T13:30:53Z</time>
      </trkpt>
      <trkpt lat="43.58092" lon="6.28327">
        <ele>380.3</ele>
        <time>2018-12-21T13:31:08Z</time>
      </trkpt>
      <trkpt lat="43.58089" lon="6.2834">
        <ele>381.4</ele>
        <time>2018-12-21T13:31:21Z</time>
      </trkpt>
      <trkpt lat="43.58083" lon="6.2835">
        <ele>381.9</ele>
        <time>2018-12-21T13:31:41Z</time>
      </trkpt>
      <trkpt lat="43.58075" lon="6.28344">
        <ele>379.7</ele>
        <time>2018-12-21T13:32:03Z</time>
      </trkpt>
      <trkpt lat="43.58068" lon="6.28335">
        <ele>378</ele>
        <time>2018-12-21T13:32:28Z</time>
      </trkpt>
      <trkpt lat="43.58059" lon="6.28336">
        <ele>377.1</ele>
        <time>2018-12-21T13:32:38Z</time>
      </trkpt>
      <trkpt lat="43.58049" lon="6.28336">
        <ele>377.6</ele>
        <time>2018-12-21T13:32:49Z</time>
      </trkpt>
      <trkpt lat="43.58039" lon="6.28337">
        <ele>377.4</ele>
        <time>2018-12-21T13:33:03Z</time>
      </trkpt>
      <trkpt lat="43.58042" lon="6.28324">
        <ele>379.3</ele>
        <time>2018-12-21T13:33:21Z</time>
      </trkpt>
      <trkpt lat="43.58033" lon="6.28329">
        <ele>382</ele>
        <time>2018-12-21T13:33:43Z</time>
      </trkpt>
      <trkpt lat="43.58025" lon="6.28337">
        <ele>383.1</ele>
        <time>2018-12-21T13:33:59Z</time>
      </trkpt>
      <trkpt lat="43.58017" lon="6.28345">
        <ele>383.2</ele>
        <time>2018-12-21T13:34:11Z</time>
      </trkpt>
      <trkpt lat="43.58008" lon="6.28348">
        <ele>383</ele>
        <time>2018-12-21T13:34:25Z</time>
      </trkpt>
      <trkpt lat="43.57999" lon="6.28349">
        <ele>384.7</ele>
        <time>2018-12-21T13:34:37Z</time>
      </trkpt>
      <trkpt lat="43.5799" lon="6.28354">
        <ele>385.9</ele>
        <time>2018-12-21T13:34:47Z</time>
      </trkpt>
      <trkpt lat="43.57981" lon="6.28357">
        <ele>386.4</ele>
        <time>2018-12-21T13:34:59Z</time>
      </trkpt>
      <trkpt lat="43.57972" lon="6.28361">
        <ele>386</ele>
        <time>2018-12-21T13:35:11Z</time>
      </trkpt>
      <trkpt lat="43.57963" lon="6.28367">
        <ele>384.9</ele>
        <time>2018-12-21T13:35:25Z</time>
      </trkpt>
      <trkpt lat="43.57955" lon="6.28374">
        <ele>384.3</ele>
        <time>2018-12-21T13:35:36Z</time>
      </trkpt>
      <trkpt lat="43.57948" lon="6.28381">
        <ele>383.1</ele>
        <time>2018-12-21T13:35:50Z</time>
      </trkpt>
      <trkpt lat="43.57938" lon="6.28383">
        <ele>382.1</ele>
        <time>2018-12-21T13:36:02Z</time>
      </trkpt>
      <trkpt lat="43.57928" lon="6.28384">
        <ele>381.9</ele>
        <time>2018-12-21T13:36:12Z</time>
      </trkpt>
      <trkpt lat="43.57919" lon="6.28384">
        <ele>381.8</ele>
        <time>2018-12-21T13:36:22Z</time>
      </trkpt>
      <trkpt lat="43.57911" lon="6.28389">
        <ele>382.7</ele>
        <time>2018-12-21T13:36:33Z</time>
      </trkpt>
      <trkpt lat="43.57904" lon="6.28398">
        <ele>382.7</ele>
        <time>2018-12-21T13:36:48Z</time>
      </trkpt>
      <trkpt lat="43.57897" lon="6.28405">
        <ele>382.6</ele>
        <time>2018-12-21T13:37:35Z</time>
      </trkpt>
      <trkpt lat="43.57888" lon="6.284">
        <ele>382.7</ele>
        <time>2018-12-21T13:37:53Z</time>
      </trkpt>
      <trkpt lat="43.57879" lon="6.28396">
        <ele>383.4</ele>
        <time>2018-12-21T13:38:06Z</time>
      </trkpt>
      <trkpt lat="43.57871" lon="6.28389">
        <ele>384</ele>
        <time>2018-12-21T13:38:22Z</time>
      </trkpt>
      <trkpt lat="43.57864" lon="6.28382">
        <ele>384</ele>
        <time>2018-12-21T13:38:32Z</time>
      </trkpt>
      <trkpt lat="43.57856" lon="6.28375">
        <ele>382.2</ele>
        <time>2018-12-21T13:39:05Z</time>
      </trkpt>
      <trkpt lat="43.57848" lon="6.28367">
        <ele>381.3</ele>
        <time>2018-12-21T13:39:42Z</time>
      </trkpt>
      <trkpt lat="43.57839" lon="6.28362">
        <ele>379.2</ele>
        <time>2018-12-21T13:39:53Z</time>
      </trkpt>
      <trkpt lat="43.57838" lon="6.28349">
        <ele>377.7</ele>
        <time>2018-12-21T13:40:04Z</time>
      </trkpt>
      <trkpt lat="43.57838" lon="6.28336">
        <ele>376.5</ele>
        <time>2018-12-21T13:40:12Z</time>
      </trkpt>
      <trkpt lat="43.57829" lon="6.28334">
        <ele>375.4</ele>
        <time>2018-12-21T13:40:22Z</time>
      </trkpt>
      <trkpt lat="43.57826" lon="6.28346">
        <ele>374.2</ele>
        <time>2018-12-21T13:40:34Z</time>
      </trkpt>
      <trkpt lat="43.57819" lon="6.28355">
        <ele>373</ele>
        <time>2018-12-21T13:40:45Z</time>
      </trkpt>
      <trkpt lat="43.5781" lon="6.28361">
        <ele>372.2</ele>
        <time>2018-12-21T13:40:58Z</time>
      </trkpt>
      <trkpt lat="43.57804" lon="6.2837">
        <ele>370.3</ele>
        <time>2018-12-21T13:42:53Z</time>
      </trkpt>
      <trkpt lat="43.57798" lon="6.28379">
        <ele>368.3</ele>
        <time>2018-12-21T13:43:58Z</time>
      </trkpt>
      <trkpt lat="43.57788" lon="6.28378">
        <ele>366.6</ele>
        <time>2018-12-21T13:44:19Z</time>
      </trkpt>
      <trkpt lat="43.5778" lon="6.28371">
        <ele>364.5</ele>
        <time>2018-12-21T13:44:44Z</time>
      </trkpt>
      <trkpt lat="43.5777" lon="6.28374">
        <ele>362.4</ele>
        <time>2018-12-21T13:45:09Z</time>
      </trkpt>
      <trkpt lat="43.5776" lon="6.28381">
        <ele>362.5</ele>
        <time>2018-12-21T13:45:15Z</time>
      </trkpt>
      <trkpt lat="43.57755" lon="6.28391">
        <ele>363</ele>
        <time>2018-12-21T13:45:24Z</time>
      </trkpt>
      <trkpt lat="43.5775" lon="6.28402">
        <ele>364.1</ele>
        <time>2018-12-21T13:45:38Z</time>
      </trkpt>
      <trkpt lat="43.57742" lon="6.28397">
        <ele>366.7</ele>
        <time>2018-12-21T13:46:05Z</time>
      </trkpt>
      <trkpt lat="43.57738" lon="6.28385">
        <ele>368</ele>
        <time>2018-12-21T13:46:17Z</time>
      </trkpt>
      <trkpt lat="43.57731" lon="6.28376">
        <ele>368.3</ele>
        <time>2018-12-21T13:46:26Z</time>
      </trkpt>
      <trkpt lat="43.57724" lon="6.28366">
        <ele>369.4</ele>
        <time>2018-12-21T13:46:37Z</time>
      </trkpt>
      <trkpt lat="43.57714" lon="6.28365">
        <ele>369.5</ele>
        <time>2018-12-21T13:46:48Z</time>
      </trkpt>
      <trkpt lat="43.57707" lon="6.28372">
        <ele>370.4</ele>
        <time>2018-12-21T13:47:00Z</time>
      </trkpt>
      <trkpt lat="43.57698" lon="6.28377">
        <ele>371.5</ele>
        <time>2018-12-21T13:47:10Z</time>
      </trkpt>
      <trkpt lat="43.57691" lon="6.28385">
        <ele>372.2</ele>
        <time>2018-12-21T13:47:19Z</time>
      </trkpt>
      <trkpt lat="43.57684" lon="6.28395">
        <ele>372.6</ele>
        <time>2018-12-21T13:47:32Z</time>
      </trkpt>
      <trkpt lat="43.5768" lon="6.28406">
        <ele>373.7</ele>
        <time>2018-12-21T13:47:44Z</time>
      </trkpt>
      <trkpt lat="43.57674" lon="6.28417">
        <ele>373.8</ele>
        <time>2018-12-21T13:47:55Z</time>
      </trkpt>
      <trkpt lat="43.5767" lon="6.28429">
        <ele>374.5</ele>
        <time>2018-12-21T13:48:07Z</time>
      </trkpt>
      <trkpt lat="43.57665" lon="6.28441">
        <ele>374.9</ele>
        <time>2018-12-21T13:48:16Z</time>
      </trkpt>
      <trkpt lat="43.57656" lon="6.28443">
        <ele>376</ele>
        <time>2018-12-21T13:48:33Z</time>
      </trkpt>
      <trkpt lat="43.57647" lon="6.28436">
        <ele>376.6</ele>
        <time>2018-12-21T13:48:47Z</time>
      </trkpt>
      <trkpt lat="43.57638" lon="6.28432">
        <ele>377.2</ele>
        <time>2018-12-21T13:48:58Z</time>
      </trkpt>
      <trkpt lat="43.5763" lon="6.28426">
        <ele>378.4</ele>
        <time>2018-12-21T13:49:11Z</time>
      </trkpt>
      <trkpt lat="43.57621" lon="6.28423">
        <ele>379</ele>
        <time>2018-12-21T13:49:22Z</time>
      </trkpt>
      <trkpt lat="43.57611" lon="6.28421">
        <ele>379.4</ele>
        <time>2018-12-21T13:49:35Z</time>
      </trkpt>
      <trkpt lat="43.57602" lon="6.28419">
        <ele>379.3</ele>
        <time>2018-12-21T13:49:42Z</time>
      </trkpt>
      <trkpt lat="43.57593" lon="6.28424">
        <ele>378.9</ele>
        <time>2018-12-21T13:49:56Z</time>
      </trkpt>
      <trkpt lat="43.57583" lon="6.28426">
        <ele>378.5</ele>
        <time>2018-12-21T13:50:08Z</time>
      </trkpt>
      <trkpt lat="43.57574" lon="6.28433">
        <ele>378</ele>
        <time>2018-12-21T13:50:19Z</time>
      </trkpt>
      <trkpt lat="43.57566" lon="6.28439">
        <ele>376.8</ele>
        <time>2018-12-21T13:50:32Z</time>
      </trkpt>
      <trkpt lat="43.57557" lon="6.28443">
        <ele>376.4</ele>
        <time>2018-12-21T13:50:43Z</time>
      </trkpt>
      <trkpt lat="43.57547" lon="6.28448">
        <ele>375.8</ele>
        <time>2018-12-21T13:50:50Z</time>
      </trkpt>
      <trkpt lat="43.57539" lon="6.28456">
        <ele>374.7</ele>
        <time>2018-12-21T13:51:05Z</time>
      </trkpt>
      <trkpt lat="43.57531" lon="6.28459">
        <ele>373.7</ele>
        <time>2018-12-21T13:51:16Z</time>
      </trkpt>
      <trkpt lat="43.57522" lon="6.28463">
        <ele>373.4</ele>
        <time>2018-12-21T13:51:26Z</time>
      </trkpt>
      <trkpt lat="43.57513" lon="6.28468">
        <ele>372.3</ele>
        <time>2018-12-21T13:51:36Z</time>
      </trkpt>
      <trkpt lat="43.57504" lon="6.28473">
        <ele>371.7</ele>
        <time>2018-12-21T13:51:50Z</time>
      </trkpt>
      <trkpt lat="43.57495" lon="6.28474">
        <ele>371.3</ele>
        <time>2018-12-21T13:51:56Z</time>
      </trkpt>
      <trkpt lat="43.57489" lon="6.28483">
        <ele>371.7</ele>
        <time>2018-12-21T13:53:15Z</time>
      </trkpt>
      <trkpt lat="43.57481" lon="6.2849">
        <ele>371.3</ele>
        <time>2018-12-21T13:53:30Z</time>
      </trkpt>
      <trkpt lat="43.57483" lon="6.28502">
        <ele>371.8</ele>
        <time>2018-12-21T13:53:55Z</time>
      </trkpt>
      <trkpt lat="43.57476" lon="6.28512">
        <ele>371.6</ele>
        <time>2018-12-21T13:54:06Z</time>
      </trkpt>
      <trkpt lat="43.5748" lon="6.28524">
        <ele>371.2</ele>
        <time>2018-12-21T13:54:18Z</time>
      </trkpt>
      <trkpt lat="43.57483" lon="6.28536">
        <ele>370.4</ele>
        <time>2018-12-21T13:54:30Z</time>
      </trkpt>
      <trkpt lat="43.57474" lon="6.28542">
        <ele>370.4</ele>
        <time>2018-12-21T13:54:40Z</time>
      </trkpt>
      <trkpt lat="43.57466" lon="6.28551">
        <ele>370.6</ele>
        <time>2018-12-21T13:54:50Z</time>
      </trkpt>
      <trkpt lat="43.57465" lon="6.28563">
        <ele>371.2</ele>
        <time>2018-12-21T13:55:27Z</time>
      </trkpt>
      <trkpt lat="43.5746" lon="6.28574">
        <ele>371.5</ele>
        <time>2018-12-21T13:55:37Z</time>
      </trkpt>
      <trkpt lat="43.57454" lon="6.28585">
        <ele>371.8</ele>
        <time>2018-12-21T13:55:47Z</time>
      </trkpt>
      <trkpt lat="43.57448" lon="6.28595">
        <ele>372</ele>
        <time>2018-12-21T13:55:55Z</time>
      </trkpt>
      <trkpt lat="43.57445" lon="6.28608">
        <ele>371.8</ele>
        <time>2018-12-21T13:56:05Z</time>
      </trkpt>
      <trkpt lat="43.57442" lon="6.2862">
        <ele>372</ele>
        <time>2018-12-21T13:56:13Z</time>
      </trkpt>
      <trkpt lat="43.57435" lon="6.28629">
        <ele>371.8</ele>
        <time>2018-12-21T13:56:24Z</time>
      </trkpt>
      <trkpt lat="43.57438" lon="6.28642">
        <ele>371.8</ele>
        <time>2018-12-21T13:56:33Z</time>
      </trkpt>
      <trkpt lat="43.57439" lon="6.28655">
        <ele>372.2</ele>
        <time>2018-12-21T13:56:42Z</time>
      </trkpt>
      <trkpt lat="43.57439" lon="6.28668">
        <ele>372.4</ele>
        <time>2018-12-21T13:56:52Z</time>
      </trkpt>
      <trkpt lat="43.5744" lon="6.28682">
        <ele>372.7</ele>
        <time>2018-12-21T13:57:02Z</time>
      </trkpt>
      <trkpt lat="43.5744" lon="6.28696">
        <ele>372.4</ele>
        <time>2018-12-21T13:57:13Z</time>
      </trkpt>
      <trkpt lat="43.5744" lon="6.28708">
        <ele>372.5</ele>
        <time>2018-12-21T13:57:22Z</time>
      </trkpt>
      <trkpt lat="43.57442" lon="6.28721">
        <ele>373.3</ele>
        <time>2018-12-21T13:57:30Z</time>
      </trkpt>
      <trkpt lat="43.57449" lon="6.2873">
        <ele>373.7</ele>
        <time>2018-12-21T13:57:39Z</time>
      </trkpt>
      <trkpt lat="43.57455" lon="6.2874">
        <ele>374.4</ele>
        <time>2018-12-21T13:57:48Z</time>
      </trkpt>
      <trkpt lat="43.57463" lon="6.28743">
        <ele>375.4</ele>
        <time>2018-12-21T13:57:58Z</time>
      </trkpt>
      <trkpt lat="43.57474" lon="6.28742">
        <ele>376.4</ele>
        <time>2018-12-21T13:58:14Z</time>
      </trkpt>
      <trkpt lat="43.57483" lon="6.28738">
        <ele>377.5</ele>
        <time>2018-12-21T13:58:24Z</time>
      </trkpt>
      <trkpt lat="43.57491" lon="6.28732">
        <ele>378.6</ele>
        <time>2018-12-21T13:58:34Z</time>
      </trkpt>
      <trkpt lat="43.57499" lon="6.28726">
        <ele>379</ele>
        <time>2018-12-21T13:58:43Z</time>
      </trkpt>
      <trkpt lat="43.57508" lon="6.2872">
        <ele>379.8</ele>
        <time>2018-12-21T13:58:53Z</time>
      </trkpt>
      <trkpt lat="43.57517" lon="6.2872">
        <ele>381.6</ele>
        <time>2018-12-21T13:59:09Z</time>
      </trkpt>
      <trkpt lat="43.57525" lon="6.28727">
        <ele>382.7</ele>
        <time>2018-12-21T13:59:21Z</time>
      </trkpt>
      <trkpt lat="43.57531" lon="6.28736">
        <ele>383</ele>
        <time>2018-12-21T13:59:31Z</time>
      </trkpt>
      <trkpt lat="43.5754" lon="6.28741">
        <ele>383.8</ele>
        <time>2018-12-21T13:59:45Z</time>
      </trkpt>
      <trkpt lat="43.57549" lon="6.28743">
        <ele>384.7</ele>
        <time>2018-12-21T13:59:56Z</time>
      </trkpt>
      <trkpt lat="43.57558" lon="6.28748">
        <ele>385</ele>
        <time>2018-12-21T14:00:06Z</time>
      </trkpt>
      <trkpt lat="43.57567" lon="6.2875">
        <ele>385.5</ele>
        <time>2018-12-21T14:00:17Z</time>
      </trkpt>
      <trkpt lat="43.57576" lon="6.28754">
        <ele>386</ele>
        <time>2018-12-21T14:00:25Z</time>
      </trkpt>
      <trkpt lat="43.57585" lon="6.28757">
        <ele>386.2</ele>
        <time>2018-12-21T14:00:35Z</time>
      </trkpt>
      <trkpt lat="43.57594" lon="6.28755">
        <ele>386.9</ele>
        <time>2018-12-21T14:00:48Z</time>
      </trkpt>
      <trkpt lat="43.57603" lon="6.2876">
        <ele>387.7</ele>
        <time>2018-12-21T14:00:59Z</time>
      </trkpt>
      <trkpt lat="43.57612" lon="6.28764">
        <ele>389</ele>
        <time>2018-12-21T14:01:09Z</time>
      </trkpt>
      <trkpt lat="43.5762" lon="6.28769">
        <ele>390.1</ele>
        <time>2018-12-21T14:01:20Z</time>
      </trkpt>
      <trkpt lat="43.5763" lon="6.28768">
        <ele>391.3</ele>
        <time>2018-12-21T14:01:31Z</time>
      </trkpt>
      <trkpt lat="43.57639" lon="6.28765">
        <ele>392.6</ele>
        <time>2018-12-21T14:01:41Z</time>
      </trkpt>
      <trkpt lat="43.57649" lon="6.28762">
        <ele>393.9</ele>
        <time>2018-12-21T14:01:53Z</time>
      </trkpt>
      <trkpt lat="43.57657" lon="6.28768">
        <ele>395</ele>
        <time>2018-12-21T14:02:05Z</time>
      </trkpt>
      <trkpt lat="43.57665" lon="6.28775">
        <ele>395.7</ele>
        <time>2018-12-21T14:02:16Z</time>
      </trkpt>
      <trkpt lat="43.57673" lon="6.28782">
        <ele>396.5</ele>
        <time>2018-12-21T14:02:28Z</time>
      </trkpt>
      <trkpt lat="43.5768" lon="6.28791">
        <ele>398.3</ele>
        <time>2018-12-21T14:02:40Z</time>
      </trkpt>
      <trkpt lat="43.57687" lon="6.28801">
        <ele>399.6</ele>
        <time>2018-12-21T14:02:52Z</time>
      </trkpt>
      <trkpt lat="43.57691" lon="6.28812">
        <ele>400.1</ele>
        <time>2018-12-21T14:03:01Z</time>
      </trkpt>
      <trkpt lat="43.57698" lon="6.28821">
        <ele>400.4</ele>
        <time>2018-12-21T14:03:11Z</time>
      </trkpt>
      <trkpt lat="43.57706" lon="6.28829">
        <ele>400.5</ele>
        <time>2018-12-21T14:03:19Z</time>
      </trkpt>
      <trkpt lat="43.57713" lon="6.28837">
        <ele>400.8</ele>
        <time>2018-12-21T14:03:28Z</time>
      </trkpt>
      <trkpt lat="43.57721" lon="6.28844">
        <ele>401.1</ele>
        <time>2018-12-21T14:03:37Z</time>
      </trkpt>
      <trkpt lat="43.57728" lon="6.28853">
        <ele>401.5</ele>
        <time>2018-12-21T14:03:47Z</time>
      </trkpt>
      <trkpt lat="43.57736" lon="6.28861">
        <ele>402.3</ele>
        <time>2018-12-21T14:03:58Z</time>
      </trkpt>
      <trkpt lat="43.57743" lon="6.28871">
        <ele>403</ele>
        <time>2018-12-21T14:04:07Z</time>
      </trkpt>
      <trkpt lat="43.57751" lon="6.28877">
        <ele>403.6</ele>
        <time>2018-12-21T14:04:14Z</time>
      </trkpt>
      <trkpt lat="43.5776" lon="6.28875">
        <ele>404.7</ele>
        <time>2018-12-21T14:04:24Z</time>
      </trkpt>
      <trkpt lat="43.57768" lon="6.28881">
        <ele>405.6</ele>
        <time>2018-12-21T14:04:36Z</time>
      </trkpt>
      <trkpt lat="43.57776" lon="6.28887">
        <ele>406.9</ele>
        <time>2018-12-21T14:04:49Z</time>
      </trkpt>
      <trkpt lat="43.57786" lon="6.2889">
        <ele>407.3</ele>
        <time>2018-12-21T14:04:59Z</time>
      </trkpt>
      <trkpt lat="43.57795" lon="6.28889">
        <ele>409.2</ele>
        <time>2018-12-21T14:05:11Z</time>
      </trkpt>
      <trkpt lat="43.57805" lon="6.28892">
        <ele>410.8</ele>
        <time>2018-12-21T14:05:23Z</time>
      </trkpt>
      <trkpt lat="43.57814" lon="6.2889">
        <ele>412.5</ele>
        <time>2018-12-21T14:05:35Z</time>
      </trkpt>
      <trkpt lat="43.57822" lon="6.28887">
        <ele>413.8</ele>
        <time>2018-12-21T14:05:49Z</time>
      </trkpt>
      <trkpt lat="43.57832" lon="6.2889">
        <ele>416.2</ele>
        <time>2018-12-21T14:06:30Z</time>
      </trkpt>
      <trkpt lat="43.57839" lon="6.28898">
        <ele>416.9</ele>
        <time>2018-12-21T14:07:23Z</time>
      </trkpt>
      <trkpt lat="43.57841" lon="6.28911">
        <ele>418.9</ele>
        <time>2018-12-21T14:07:38Z</time>
      </trkpt>
      <trkpt lat="43.57838" lon="6.28923">
        <ele>419.5</ele>
        <time>2018-12-21T14:07:50Z</time>
      </trkpt>
      <trkpt lat="43.57838" lon="6.28937">
        <ele>420.4</ele>
        <time>2018-12-21T14:08:00Z</time>
      </trkpt>
      <trkpt lat="43.57834" lon="6.28949">
        <ele>422</ele>
        <time>2018-12-21T14:08:11Z</time>
      </trkpt>
      <trkpt lat="43.57836" lon="6.28961">
        <ele>423</ele>
        <time>2018-12-21T14:08:25Z</time>
      </trkpt>
      <trkpt lat="43.57837" lon="6.28974">
        <ele>423.9</ele>
        <time>2018-12-21T14:08:49Z</time>
      </trkpt>
      <trkpt lat="43.57837" lon="6.28987">
        <ele>425.6</ele>
        <time>2018-12-21T14:09:00Z</time>
      </trkpt>
      <trkpt lat="43.57834" lon="6.28999">
        <ele>426.9</ele>
        <time>2018-12-21T14:09:14Z</time>
      </trkpt>
      <trkpt lat="43.57834" lon="6.29012">
        <ele>427.9</ele>
        <time>2018-12-21T14:09:26Z</time>
      </trkpt>
      <trkpt lat="43.57833" lon="6.29026">
        <ele>429</ele>
        <time>2018-12-21T14:09:39Z</time>
      </trkpt>
      <trkpt lat="43.57831" lon="6.29038">
        <ele>430</ele>
        <time>2018-12-21T14:09:48Z</time>
      </trkpt>
      <trkpt lat="43.57823" lon="6.29045">
        <ele>431.5</ele>
        <time>2018-12-21T14:10:01Z</time>
      </trkpt>
      <trkpt lat="43.57814" lon="6.29049">
        <ele>432.3</ele>
        <time>2018-12-21T14:10:11Z</time>
      </trkpt>
      <trkpt lat="43.57806" lon="6.29057">
        <ele>433.1</ele>
        <time>2018-12-21T14:10:21Z</time>
      </trkpt>
      <trkpt lat="43.57806" lon="6.29069">
        <ele>434.3</ele>
        <time>2018-12-21T14:10:29Z</time>
      </trkpt>
      <trkpt lat="43.57811" lon="6.29081">
        <ele>435.7</ele>
        <time>2018-12-21T14:10:40Z</time>
      </trkpt>
      <trkpt lat="43.57818" lon="6.29088">
        <ele>437</ele>
        <time>2018-12-21T14:10:50Z</time>
      </trkpt>
      <trkpt lat="43.57824" lon="6.291">
        <ele>438.1</ele>
        <time>2018-12-21T14:11:03Z</time>
      </trkpt>
      <trkpt lat="43.57831" lon="6.29109">
        <ele>439.1</ele>
        <time>2018-12-21T14:11:12Z</time>
      </trkpt>
      <trkpt lat="43.57835" lon="6.29121">
        <ele>440.1</ele>
        <time>2018-12-21T14:11:23Z</time>
      </trkpt>
      <trkpt lat="43.57843" lon="6.2913">
        <ele>441.3</ele>
        <time>2018-12-21T14:11:33Z</time>
      </trkpt>
      <trkpt lat="43.5785" lon="6.29138">
        <ele>443.2</ele>
        <time>2018-12-21T14:11:49Z</time>
      </trkpt>
      <trkpt lat="43.57858" lon="6.29132">
        <ele>444.4</ele>
        <time>2018-12-21T14:12:00Z</time>
      </trkpt>
      <trkpt lat="43.57867" lon="6.29126">
        <ele>446.1</ele>
        <time>2018-12-21T14:12:16Z</time>
      </trkpt>
      <trkpt lat="43.57875" lon="6.2912">
        <ele>448</ele>
        <time>2018-12-21T14:13:24Z</time>
      </trkpt>
      <trkpt lat="43.57885" lon="6.29122">
        <ele>449.5</ele>
        <time>2018-12-21T14:13:38Z</time>
      </trkpt>
      <trkpt lat="43.57894" lon="6.29125">
        <ele>451.5</ele>
        <time>2018-12-21T14:13:53Z</time>
      </trkpt>
      <trkpt lat="43.57903" lon="6.29127">
        <ele>453.4</ele>
        <time>2018-12-21T14:14:05Z</time>
      </trkpt>
      <trkpt lat="43.57913" lon="6.29125">
        <ele>455.3</ele>
        <time>2018-12-21T14:14:20Z</time>
      </trkpt>
      <trkpt lat="43.57921" lon="6.29132">
        <ele>456.9</ele>
        <time>2018-12-21T14:14:36Z</time>
      </trkpt>
      <trkpt lat="43.57928" lon="6.2914">
        <ele>459</ele>
        <time>2018-12-21T14:14:53Z</time>
      </trkpt>
      <trkpt lat="43.57934" lon="6.2915">
        <ele>461.4</ele>
        <time>2018-12-21T14:15:13Z</time>
      </trkpt>
      <trkpt lat="43.57939" lon="6.29161">
        <ele>462.9</ele>
        <time>2018-12-21T14:15:24Z</time>
      </trkpt>
      <trkpt lat="43.57945" lon="6.29171">
        <ele>465.5</ele>
        <time>2018-12-21T14:15:39Z</time>
      </trkpt>
      <trkpt lat="43.57949" lon="6.29182">
        <ele>468.8</ele>
        <time>2018-12-21T14:16:06Z</time>
      </trkpt>
      <trkpt lat="43.57954" lon="6.29193">
        <ele>470.8</ele>
        <time>2018-12-21T14:16:24Z</time>
      </trkpt>
      <trkpt lat="43.57957" lon="6.29206">
        <ele>473.3</ele>
        <time>2018-12-21T14:16:41Z</time>
      </trkpt>
      <trkpt lat="43.57958" lon="6.29219">
        <ele>474.1</ele>
        <time>2018-12-21T14:16:51Z</time>
      </trkpt>
      <trkpt lat="43.57964" lon="6.29229">
        <ele>474.2</ele>
        <time>2018-12-21T14:16:58Z</time>
      </trkpt>
      <trkpt lat="43.57973" lon="6.29235">
        <ele>474.6</ele>
        <time>2018-12-21T14:17:11Z</time>
      </trkpt>
      <trkpt lat="43.57981" lon="6.29241">
        <ele>475.7</ele>
        <time>2018-12-21T14:17:25Z</time>
      </trkpt>
      <trkpt lat="43.5799" lon="6.29243">
        <ele>476.8</ele>
        <time>2018-12-21T14:17:34Z</time>
      </trkpt>
      <trkpt lat="43.58" lon="6.29247">
        <ele>477.8</ele>
        <time>2018-12-21T14:17:47Z</time>
      </trkpt>
      <trkpt lat="43.58007" lon="6.29255">
        <ele>479.2</ele>
        <time>2018-12-21T14:18:00Z</time>
      </trkpt>
      <trkpt lat="43.58011" lon="6.29267">
        <ele>481.3</ele>
        <time>2018-12-21T14:18:15Z</time>
      </trkpt>
      <trkpt lat="43.58012" lon="6.2928">
        <ele>482.6</ele>
        <time>2018-12-21T14:18:27Z</time>
      </trkpt>
      <trkpt lat="43.58012" lon="6.29292">
        <ele>483.8</ele>
        <time>2018-12-21T14:18:40Z</time>
      </trkpt>
      <trkpt lat="43.58016" lon="6.29303">
        <ele>486.1</ele>
        <time>2018-12-21T14:18:58Z</time>
      </trkpt>
      <trkpt lat="43.58019" lon="6.29316">
        <ele>487.7</ele>
        <time>2018-12-21T14:19:17Z</time>
      </trkpt>
      <trkpt lat="43.58019" lon="6.29328">
        <ele>491.1</ele>
        <time>2018-12-21T14:19:50Z</time>
      </trkpt>
      <trkpt lat="43.58028" lon="6.29332">
        <ele>491.2</ele>
        <time>2018-12-21T14:27:03Z</time>
      </trkpt>
      <trkpt lat="43.58036" lon="6.29339">
        <ele>490.9</ele>
        <time>2018-12-21T14:27:12Z</time>
      </trkpt>
      <trkpt lat="43.58046" lon="6.29345">
        <ele>490.5</ele>
        <time>2018-12-21T14:27:20Z</time>
      </trkpt>
      <trkpt lat="43.58055" lon="6.29348">
        <ele>490.7</ele>
        <time>2018-12-21T14:27:28Z</time>
      </trkpt>
      <trkpt lat="43.58064" lon="6.2935">
        <ele>491</ele>
        <time>2018-12-21T14:27:38Z</time>
      </trkpt>
      <trkpt lat="43.58073" lon="6.29354">
        <ele>492.6</ele>
        <time>2018-12-21T14:27:50Z</time>
      </trkpt>
      <trkpt lat="43.58083" lon="6.29355">
        <ele>493.9</ele>
        <time>2018-12-21T14:27:59Z</time>
      </trkpt>
      <trkpt lat="43.58092" lon="6.29356">
        <ele>495.6</ele>
        <time>2018-12-21T14:28:10Z</time>
      </trkpt>
      <trkpt lat="43.58102" lon="6.29359">
        <ele>497.5</ele>
        <time>2018-12-21T14:28:25Z</time>
      </trkpt>
      <trkpt lat="43.5811" lon="6.29366">
        <ele>499.4</ele>
        <time>2018-12-21T14:28:36Z</time>
      </trkpt>
      <trkpt lat="43.58119" lon="6.29373">
        <ele>501.8</ele>
        <time>2018-12-21T14:28:53Z</time>
      </trkpt>
      <trkpt lat="43.58129" lon="6.29377">
        <ele>503.6</ele>
        <time>2018-12-21T14:29:05Z</time>
      </trkpt>
      <trkpt lat="43.58138" lon="6.2938">
        <ele>505.4</ele>
        <time>2018-12-21T14:29:15Z</time>
      </trkpt>
      <trkpt lat="43.58148" lon="6.29381">
        <ele>506.9</ele>
        <time>2018-12-21T14:29:25Z</time>
      </trkpt>
      <trkpt lat="43.58158" lon="6.29381">
        <ele>508.5</ele>
        <time>2018-12-21T14:29:36Z</time>
      </trkpt>
      <trkpt lat="43.58167" lon="6.29384">
        <ele>510.9</ele>
        <time>2018-12-21T14:29:52Z</time>
      </trkpt>
      <trkpt lat="43.58175" lon="6.2939">
        <ele>513.3</ele>
        <time>2018-12-21T14:30:06Z</time>
      </trkpt>
      <trkpt lat="43.58184" lon="6.29395">
        <ele>514.9</ele>
        <time>2018-12-21T14:30:14Z</time>
      </trkpt>
      <trkpt lat="43.58193" lon="6.29401">
        <ele>516.6</ele>
        <time>2018-12-21T14:30:26Z</time>
      </trkpt>
      <trkpt lat="43.58202" lon="6.29402">
        <ele>518.3</ele>
        <time>2018-12-21T14:30:40Z</time>
      </trkpt>
      <trkpt lat="43.58211" lon="6.29405">
        <ele>519.4</ele>
        <time>2018-12-21T14:30:51Z</time>
      </trkpt>
      <trkpt lat="43.5822" lon="6.29411">
        <ele>520.6</ele>
        <time>2018-12-21T14:31:03Z</time>
      </trkpt>
      <trkpt lat="43.58229" lon="6.29417">
        <ele>521.3</ele>
        <time>2018-12-21T14:31:12Z</time>
      </trkpt>
      <trkpt lat="43.58237" lon="6.29423">
        <ele>522.4</ele>
        <time>2018-12-21T14:31:23Z</time>
      </trkpt>
      <trkpt lat="43.58247" lon="6.29426">
        <ele>524.2</ele>
        <time>2018-12-21T14:31:41Z</time>
      </trkpt>
      <trkpt lat="43.58256" lon="6.29426">
        <ele>525.1</ele>
        <time>2018-12-21T14:31:51Z</time>
      </trkpt>
      <trkpt lat="43.58265" lon="6.29431">
        <ele>526</ele>
        <time>2018-12-21T14:32:01Z</time>
      </trkpt>
      <trkpt lat="43.58273" lon="6.29437">
        <ele>527.2</ele>
        <time>2018-12-21T14:32:13Z</time>
      </trkpt>
      <trkpt lat="43.58282" lon="6.29443">
        <ele>528.4</ele>
        <time>2018-12-21T14:32:25Z</time>
      </trkpt>
      <trkpt lat="43.58291" lon="6.29447">
        <ele>529.5</ele>
        <time>2018-12-21T14:32:35Z</time>
      </trkpt>
      <trkpt lat="43.58297" lon="6.29457">
        <ele>530.5</ele>
        <time>2018-12-21T14:32:47Z</time>
      </trkpt>
      <trkpt lat="43.58306" lon="6.29462">
        <ele>531.2</ele>
        <time>2018-12-21T14:32:57Z</time>
      </trkpt>
      <trkpt lat="43.58315" lon="6.29467">
        <ele>532.2</ele>
        <time>2018-12-21T14:33:11Z</time>
      </trkpt>
      <trkpt lat="43.58324" lon="6.29476">
        <ele>534.1</ele>
        <time>2018-12-21T14:33:26Z</time>
      </trkpt>
      <trkpt lat="43.58332" lon="6.29482">
        <ele>534.6</ele>
        <time>2018-12-21T14:33:35Z</time>
      </trkpt>
      <trkpt lat="43.58341" lon="6.29487">
        <ele>535.9</ele>
        <time>2018-12-21T14:33:46Z</time>
      </trkpt>
      <trkpt lat="43.58349" lon="6.29493">
        <ele>536.4</ele>
        <time>2018-12-21T14:33:55Z</time>
      </trkpt>
      <trkpt lat="43.58358" lon="6.29497">
        <ele>537.4</ele>
        <time>2018-12-21T14:34:07Z</time>
      </trkpt>
      <trkpt lat="43.58366" lon="6.29503">
        <ele>538</ele>
        <time>2018-12-21T14:34:16Z</time>
      </trkpt>
      <trkpt lat="43.58374" lon="6.2951">
        <ele>539.2</ele>
        <time>2018-12-21T14:34:27Z</time>
      </trkpt>
      <trkpt lat="43.58377" lon="6.29522">
        <ele>539.9</ele>
        <time>2018-12-21T14:34:37Z</time>
      </trkpt>
      <trkpt lat="43.58385" lon="6.29531">
        <ele>540.5</ele>
        <time>2018-12-21T14:34:47Z</time>
      </trkpt>
      <trkpt lat="43.58391" lon="6.29539">
        <ele>541.2</ele>
        <time>2018-12-21T14:34:56Z</time>
      </trkpt>
      <trkpt lat="43.58397" lon="6.2955">
        <ele>542.2</ele>
        <time>2018-12-21T14:35:07Z</time>
      </trkpt>
      <trkpt lat="43.58405" lon="6.29557">
        <ele>543.4</ele>
        <time>2018-12-21T14:35:17Z</time>
      </trkpt>
      <trkpt lat="43.58412" lon="6.29566">
        <ele>544.9</ele>
        <time>2018-12-21T14:35:28Z</time>
      </trkpt>
      <trkpt lat="43.5842" lon="6.29572">
        <ele>545.7</ele>
        <time>2018-12-21T14:35:38Z</time>
      </trkpt>
      <trkpt lat="43.58429" lon="6.29578">
        <ele>546.2</ele>
        <time>2018-12-21T14:35:49Z</time>
      </trkpt>
      <trkpt lat="43.58436" lon="6.29587">
        <ele>546.6</ele>
        <time>2018-12-21T14:36:01Z</time>
      </trkpt>
      <trkpt lat="43.58443" lon="6.29595">
        <ele>547</ele>
        <time>2018-12-21T14:36:11Z</time>
      </trkpt>
      <trkpt lat="43.58451" lon="6.29605">
        <ele>547.3</ele>
        <time>2018-12-21T14:36:27Z</time>
      </trkpt>
      <trkpt lat="43.58458" lon="6.29612">
        <ele>547.4</ele>
        <time>2018-12-21T14:36:36Z</time>
      </trkpt>
      <trkpt lat="43.58468" lon="6.2962">
        <ele>548.1</ele>
        <time>2018-12-21T14:36:47Z</time>
      </trkpt>
      <trkpt lat="43.58475" lon="6.29629">
        <ele>549</ele>
        <time>2018-12-21T14:36:59Z</time>
      </trkpt>
      <trkpt lat="43.58483" lon="6.29639">
        <ele>549.7</ele>
        <time>2018-12-21T14:37:07Z</time>
      </trkpt>
      <trkpt lat="43.58486" lon="6.2965">
        <ele>549.4</ele>
        <time>2018-12-21T14:38:25Z</time>
      </trkpt>
      <trkpt lat="43.58495" lon="6.29655">
        <ele>549.3</ele>
        <time>2018-12-21T14:39:34Z</time>
      </trkpt>
      <trkpt lat="43.58499" lon="6.29666">
        <ele>549.1</ele>
        <time>2018-12-21T14:39:43Z</time>
      </trkpt>
      <trkpt lat="43.585" lon="6.29679">
        <ele>549.5</ele>
        <time>2018-12-21T14:39:54Z</time>
      </trkpt>
      <trkpt lat="43.58497" lon="6.29693">
        <ele>549.6</ele>
        <time>2018-12-21T14:40:06Z</time>
      </trkpt>
      <trkpt lat="43.58494" lon="6.29705">
        <ele>550.1</ele>
        <time>2018-12-21T14:40:18Z</time>
      </trkpt>
      <trkpt lat="43.58495" lon="6.29718">
        <ele>551.2</ele>
        <time>2018-12-21T14:40:28Z</time>
      </trkpt>
      <trkpt lat="43.58502" lon="6.29726">
        <ele>551.7</ele>
        <time>2018-12-21T14:40:37Z</time>
      </trkpt>
      <trkpt lat="43.58511" lon="6.29727">
        <ele>552.1</ele>
        <time>2018-12-21T14:40:44Z</time>
      </trkpt>
      <trkpt lat="43.58521" lon="6.29728">
        <ele>552.9</ele>
        <time>2018-12-21T14:41:01Z</time>
      </trkpt>
      <trkpt lat="43.5853" lon="6.29724">
        <ele>553.9</ele>
        <time>2018-12-21T14:41:10Z</time>
      </trkpt>
      <trkpt lat="43.5854" lon="6.29724">
        <ele>554.3</ele>
        <time>2018-12-21T14:41:16Z</time>
      </trkpt>
      <trkpt lat="43.5855" lon="6.29723">
        <ele>555.3</ele>
        <time>2018-12-21T14:41:24Z</time>
      </trkpt>
      <trkpt lat="43.58558" lon="6.29717">
        <ele>556.3</ele>
        <time>2018-12-21T14:41:36Z</time>
      </trkpt>
      <trkpt lat="43.58566" lon="6.2971">
        <ele>557.8</ele>
        <time>2018-12-21T14:41:47Z</time>
      </trkpt>
      <trkpt lat="43.58574" lon="6.29703">
        <ele>558.5</ele>
        <time>2018-12-21T14:41:55Z</time>
      </trkpt>
      <trkpt lat="43.58581" lon="6.29693">
        <ele>559.3</ele>
        <time>2018-12-21T14:42:05Z</time>
      </trkpt>
      <trkpt lat="43.58587" lon="6.29682">
        <ele>559.9</ele>
        <time>2018-12-21T14:42:16Z</time>
      </trkpt>
      <trkpt lat="43.58594" lon="6.29673">
        <ele>560.4</ele>
        <time>2018-12-21T14:42:28Z</time>
      </trkpt>
      <trkpt lat="43.58601" lon="6.29666">
        <ele>560.5</ele>
        <time>2018-12-21T14:42:38Z</time>
      </trkpt>
      <trkpt lat="43.58609" lon="6.29659">
        <ele>560.9</ele>
        <time>2018-12-21T14:42:45Z</time>
      </trkpt>
      <trkpt lat="43.58616" lon="6.2965">
        <ele>561.4</ele>
        <time>2018-12-21T14:42:57Z</time>
      </trkpt>
      <trkpt lat="43.58623" lon="6.29642">
        <ele>561.4</ele>
        <time>2018-12-21T14:43:06Z</time>
      </trkpt>
      <trkpt lat="43.58632" lon="6.29639">
        <ele>561.6</ele>
        <time>2018-12-21T14:43:13Z</time>
      </trkpt>
      <trkpt lat="43.58641" lon="6.29637">
        <ele>561.9</ele>
        <time>2018-12-21T14:43:24Z</time>
      </trkpt>
      <trkpt lat="43.58651" lon="6.29636">
        <ele>562</ele>
        <time>2018-12-21T14:43:32Z</time>
      </trkpt>
      <trkpt lat="43.58661" lon="6.29635">
        <ele>562.1</ele>
        <time>2018-12-21T14:43:41Z</time>
      </trkpt>
      <trkpt lat="43.5867" lon="6.29642">
        <ele>562</ele>
        <time>2018-12-21T14:43:53Z</time>
      </trkpt>
      <trkpt lat="43.58678" lon="6.29635">
        <ele>562.1</ele>
        <time>2018-12-21T14:44:35Z</time>
      </trkpt>
      <trkpt lat="43.58688" lon="6.29637">
        <ele>562.2</ele>
        <time>2018-12-21T14:44:48Z</time>
      </trkpt>
      <trkpt lat="43.58697" lon="6.29638">
        <ele>562.3</ele>
        <time>2018-12-21T14:44:58Z</time>
      </trkpt>
      <trkpt lat="43.58707" lon="6.29638">
        <ele>562.6</ele>
        <time>2018-12-21T14:45:10Z</time>
      </trkpt>
      <trkpt lat="43.58715" lon="6.29631">
        <ele>563</ele>
        <time>2018-12-21T14:45:27Z</time>
      </trkpt>
      <trkpt lat="43.58724" lon="6.29627">
        <ele>563.1</ele>
        <time>2018-12-21T14:45:36Z</time>
      </trkpt>
      <trkpt lat="43.58734" lon="6.29625">
        <ele>563.7</ele>
        <time>2018-12-21T14:45:44Z</time>
      </trkpt>
      <trkpt lat="43.58742" lon="6.2962">
        <ele>563.9</ele>
        <time>2018-12-21T14:45:53Z</time>
      </trkpt>
      <trkpt lat="43.5875" lon="6.29612">
        <ele>564.5</ele>
        <time>2018-12-21T14:46:05Z</time>
      </trkpt>
      <trkpt lat="43.58758" lon="6.29604">
        <ele>564.6</ele>
        <time>2018-12-21T14:46:13Z</time>
      </trkpt>
      <trkpt lat="43.58767" lon="6.29597">
        <ele>564.8</ele>
        <time>2018-12-21T14:46:21Z</time>
      </trkpt>
      <trkpt lat="43.58773" lon="6.29588">
        <ele>564.1</ele>
        <time>2018-12-21T14:46:33Z</time>
      </trkpt>
      <trkpt lat="43.58781" lon="6.29581">
        <ele>563.3</ele>
        <time>2018-12-21T14:47:01Z</time>
      </trkpt>
      <trkpt lat="43.58782" lon="6.29568">
        <ele>562.9</ele>
        <time>2018-12-21T14:47:15Z</time>
      </trkpt>
      <trkpt lat="43.5878" lon="6.29555">
        <ele>563.2</ele>
        <time>2018-12-21T14:47:26Z</time>
      </trkpt>
      <trkpt lat="43.58774" lon="6.29544">
        <ele>563.2</ele>
        <time>2018-12-21T14:47:35Z</time>
      </trkpt>
      <trkpt lat="43.58768" lon="6.29534">
        <ele>562.9</ele>
        <time>2018-12-21T14:47:44Z</time>
      </trkpt>
      <trkpt lat="43.58765" lon="6.29522">
        <ele>562.5</ele>
        <time>2018-12-21T14:47:56Z</time>
      </trkpt>
      <trkpt lat="43.58758" lon="6.29512">
        <ele>561.6</ele>
        <time>2018-12-21T14:48:06Z</time>
      </trkpt>
      <trkpt lat="43.58752" lon="6.29501">
        <ele>560.8</ele>
        <time>2018-12-21T14:48:15Z</time>
      </trkpt>
      <trkpt lat="43.58746" lon="6.29492">
        <ele>560.3</ele>
        <time>2018-12-21T14:48:22Z</time>
      </trkpt>
      <trkpt lat="43.58744" lon="6.29479">
        <ele>559.8</ele>
        <time>2018-12-21T14:48:32Z</time>
      </trkpt>
      <trkpt lat="43.58746" lon="6.29467">
        <ele>558.9</ele>
        <time>2018-12-21T14:48:41Z</time>
      </trkpt>
      <trkpt lat="43.58753" lon="6.29455">
        <ele>558.8</ele>
        <time>2018-12-21T14:48:50Z</time>
      </trkpt>
      <trkpt lat="43.58756" lon="6.29444">
        <ele>558.4</ele>
        <time>2018-12-21T14:48:56Z</time>
      </trkpt>
      <trkpt lat="43.58756" lon="6.29432">
        <ele>558</ele>
        <time>2018-12-21T14:49:04Z</time>
      </trkpt>
      <trkpt lat="43.58751" lon="6.29421">
        <ele>557</ele>
        <time>2018-12-21T14:49:13Z</time>
      </trkpt>
      <trkpt lat="43.58745" lon="6.2941">
        <ele>555.6</ele>
        <time>2018-12-21T14:49:23Z</time>
      </trkpt>
      <trkpt lat="43.58736" lon="6.29405">
        <ele>555.3</ele>
        <time>2018-12-21T14:49:31Z</time>
      </trkpt>
      <trkpt lat="43.58727" lon="6.29399">
        <ele>554.9</ele>
        <time>2018-12-21T14:49:40Z</time>
      </trkpt>
      <trkpt lat="43.58719" lon="6.29392">
        <ele>554.2</ele>
        <time>2018-12-21T14:49:49Z</time>
      </trkpt>
      <trkpt lat="43.58711" lon="6.29385">
        <ele>553.5</ele>
        <time>2018-12-21T14:49:59Z</time>
      </trkpt>
      <trkpt lat="43.58701" lon="6.29382">
        <ele>552.8</ele>
        <time>2018-12-21T14:50:08Z</time>
      </trkpt>
      <trkpt lat="43.58692" lon="6.29379">
        <ele>552.3</ele>
        <time>2018-12-21T14:50:15Z</time>
      </trkpt>
      <trkpt lat="43.58685" lon="6.29371">
        <ele>551.6</ele>
        <time>2018-12-21T14:50:27Z</time>
      </trkpt>
      <trkpt lat="43.58676" lon="6.29363">
        <ele>551.4</ele>
        <time>2018-12-21T14:50:36Z</time>
      </trkpt>
      <trkpt lat="43.58668" lon="6.29355">
        <ele>551.3</ele>
        <time>2018-12-21T14:50:44Z</time>
      </trkpt>
      <trkpt lat="43.58661" lon="6.29346">
        <ele>551.3</ele>
        <time>2018-12-21T14:50:55Z</time>
      </trkpt>
      <trkpt lat="43.58659" lon="6.29333">
        <ele>551.5</ele>
        <time>2018-12-21T14:51:05Z</time>
      </trkpt>
      <trkpt lat="43.58661" lon="6.29321">
        <ele>551.8</ele>
        <time>2018-12-21T14:51:15Z</time>
      </trkpt>
      <trkpt lat="43.58656" lon="6.29309">
        <ele>552.5</ele>
        <time>2018-12-21T14:51:24Z</time>
      </trkpt>
      <trkpt lat="43.58654" lon="6.29296">
        <ele>552.8</ele>
        <time>2018-12-21T14:51:32Z</time>
      </trkpt>
      <trkpt lat="43.58655" lon="6.29282">
        <ele>552.5</ele>
        <time>2018-12-21T14:51:42Z</time>
      </trkpt>
      <trkpt lat="43.58654" lon="6.2927">
        <ele>551.5</ele>
        <time>2018-12-21T14:51:52Z</time>
      </trkpt>
      <trkpt lat="43.58648" lon="6.29258">
        <ele>551.3</ele>
        <time>2018-12-21T14:52:01Z</time>
      </trkpt>
      <trkpt lat="43.58651" lon="6.29245">
        <ele>551.3</ele>
        <time>2018-12-21T14:52:09Z</time>
      </trkpt>
      <trkpt lat="43.58649" lon="6.29232">
        <ele>551.5</ele>
        <time>2018-12-21T14:52:16Z</time>
      </trkpt>
      <trkpt lat="43.58651" lon="6.2922">
        <ele>551.5</ele>
        <time>2018-12-21T14:52:26Z</time>
      </trkpt>
      <trkpt lat="43.58654" lon="6.29207">
        <ele>551.6</ele>
        <time>2018-12-21T14:52:36Z</time>
      </trkpt>
      <trkpt lat="43.58653" lon="6.29194">
        <ele>551.5</ele>
        <time>2018-12-21T14:52:45Z</time>
      </trkpt>
      <trkpt lat="43.58647" lon="6.29185">
        <ele>551.6</ele>
        <time>2018-12-21T14:52:52Z</time>
      </trkpt>
      <trkpt lat="43.58643" lon="6.29173">
        <ele>551.4</ele>
        <time>2018-12-21T14:53:02Z</time>
      </trkpt>
      <trkpt lat="43.58639" lon="6.29162">
        <ele>551</ele>
        <time>2018-12-21T14:53:11Z</time>
      </trkpt>
      <trkpt lat="43.58633" lon="6.2915">
        <ele>550.6</ele>
        <time>2018-12-21T14:53:22Z</time>
      </trkpt>
      <trkpt lat="43.58627" lon="6.29139">
        <ele>550.3</ele>
        <time>2018-12-21T14:53:31Z</time>
      </trkpt>
      <trkpt lat="43.58622" lon="6.29128">
        <ele>550.2</ele>
        <time>2018-12-21T14:53:40Z</time>
      </trkpt>
      <trkpt lat="43.58617" lon="6.29118">
        <ele>550.1</ele>
        <time>2018-12-21T14:53:51Z</time>
      </trkpt>
      <trkpt lat="43.58612" lon="6.29107">
        <ele>550.2</ele>
        <time>2018-12-21T14:53:59Z</time>
      </trkpt>
      <trkpt lat="43.58608" lon="6.29093">
        <ele>550</ele>
        <time>2018-12-21T14:54:07Z</time>
      </trkpt>
      <trkpt lat="43.58601" lon="6.29082">
        <ele>550.3</ele>
        <time>2018-12-21T14:54:14Z</time>
      </trkpt>
      <trkpt lat="43.58597" lon="6.2907">
        <ele>550.1</ele>
        <time>2018-12-21T14:54:22Z</time>
      </trkpt>
      <trkpt lat="43.58593" lon="6.29059">
        <ele>549.5</ele>
        <time>2018-12-21T14:54:32Z</time>
      </trkpt>
      <trkpt lat="43.58591" lon="6.29046">
        <ele>548.8</ele>
        <time>2018-12-21T14:54:40Z</time>
      </trkpt>
      <trkpt lat="43.58586" lon="6.29035">
        <ele>548.1</ele>
        <time>2018-12-21T14:54:48Z</time>
      </trkpt>
      <trkpt lat="43.58586" lon="6.29023">
        <ele>547.5</ele>
        <time>2018-12-21T14:54:55Z</time>
      </trkpt>
      <trkpt lat="43.58584" lon="6.29009">
        <ele>546.5</ele>
        <time>2018-12-21T14:55:04Z</time>
      </trkpt>
      <trkpt lat="43.5858" lon="6.28997">
        <ele>545.7</ele>
        <time>2018-12-21T14:55:13Z</time>
      </trkpt>
      <trkpt lat="43.58577" lon="6.28984">
        <ele>545.4</ele>
        <time>2018-12-21T14:55:22Z</time>
      </trkpt>
      <trkpt lat="43.58573" lon="6.28972">
        <ele>545.4</ele>
        <time>2018-12-21T14:55:32Z</time>
      </trkpt>
      <trkpt lat="43.58572" lon="6.28959">
        <ele>545.4</ele>
        <time>2018-12-21T14:55:42Z</time>
      </trkpt>
      <trkpt lat="43.58572" lon="6.28945">
        <ele>545</ele>
        <time>2018-12-21T14:55:57Z</time>
      </trkpt>
      <trkpt lat="43.58576" lon="6.28934">
        <ele>545.6</ele>
        <time>2018-12-21T14:56:35Z</time>
      </trkpt>
      <trkpt lat="43.58576" lon="6.28917">
        <ele>546.1</ele>
        <time>2018-12-21T14:56:46Z</time>
      </trkpt>
      <trkpt lat="43.58573" lon="6.28906">
        <ele>546.4</ele>
        <time>2018-12-21T14:56:58Z</time>
      </trkpt>
      <trkpt lat="43.58576" lon="6.28893">
        <ele>546.8</ele>
        <time>2018-12-21T15:00:05Z</time>
      </trkpt>
      <trkpt lat="43.58572" lon="6.28882">
        <ele>546.7</ele>
        <time>2018-12-21T15:00:16Z</time>
      </trkpt>
      <trkpt lat="43.58573" lon="6.28869">
        <ele>546.4</ele>
        <time>2018-12-21T15:00:28Z</time>
      </trkpt>
      <trkpt lat="43.58571" lon="6.28856">
        <ele>545.6</ele>
        <time>2018-12-21T15:00:40Z</time>
      </trkpt>
      <trkpt lat="43.58571" lon="6.28843">
        <ele>544.9</ele>
        <time>2018-12-21T15:00:49Z</time>
      </trkpt>
      <trkpt lat="43.58567" lon="6.2883">
        <ele>544.3</ele>
        <time>2018-12-21T15:00:56Z</time>
      </trkpt>
      <trkpt lat="43.58563" lon="6.28817">
        <ele>542.8</ele>
        <time>2018-12-21T15:01:05Z</time>
      </trkpt>
      <trkpt lat="43.58556" lon="6.28807">
        <ele>541.5</ele>
        <time>2018-12-21T15:01:13Z</time>
      </trkpt>
      <trkpt lat="43.58548" lon="6.28798">
        <ele>540.3</ele>
        <time>2018-12-21T15:01:22Z</time>
      </trkpt>
      <trkpt lat="43.58543" lon="6.28788">
        <ele>538.5</ele>
        <time>2018-12-21T15:01:34Z</time>
      </trkpt>
      <trkpt lat="43.58536" lon="6.28779">
        <ele>536.9</ele>
        <time>2018-12-21T15:01:46Z</time>
      </trkpt>
      <trkpt lat="43.58527" lon="6.28771">
        <ele>535</ele>
        <time>2018-12-21T15:01:59Z</time>
      </trkpt>
      <trkpt lat="43.58522" lon="6.2876">
        <ele>534</ele>
        <time>2018-12-21T15:02:06Z</time>
      </trkpt>
      <trkpt lat="43.58526" lon="6.28747">
        <ele>532.5</ele>
        <time>2018-12-21T15:02:14Z</time>
      </trkpt>
      <trkpt lat="43.58532" lon="6.28737">
        <ele>531</ele>
        <time>2018-12-21T15:02:24Z</time>
      </trkpt>
      <trkpt lat="43.58538" lon="6.28726">
        <ele>529.8</ele>
        <time>2018-12-21T15:02:32Z</time>
      </trkpt>
      <trkpt lat="43.58544" lon="6.28715">
        <ele>528.6</ele>
        <time>2018-12-21T15:02:39Z</time>
      </trkpt>
      <trkpt lat="43.58543" lon="6.28702">
        <ele>527.1</ele>
        <time>2018-12-21T15:02:57Z</time>
      </trkpt>
      <trkpt lat="43.58535" lon="6.28694">
        <ele>525.1</ele>
        <time>2018-12-21T15:03:12Z</time>
      </trkpt>
      <trkpt lat="43.58528" lon="6.28687">
        <ele>524.1</ele>
        <time>2018-12-21T15:03:21Z</time>
      </trkpt>
      <trkpt lat="43.5852" lon="6.28678">
        <ele>523.1</ele>
        <time>2018-12-21T15:03:29Z</time>
      </trkpt>
      <trkpt lat="43.58511" lon="6.28673">
        <ele>522.6</ele>
        <time>2018-12-21T15:03:35Z</time>
      </trkpt>
      <trkpt lat="43.58502" lon="6.2867">
        <ele>521.2</ele>
        <time>2018-12-21T15:03:45Z</time>
      </trkpt>
      <trkpt lat="43.58493" lon="6.28664">
        <ele>519.7</ele>
        <time>2018-12-21T15:03:53Z</time>
      </trkpt>
      <trkpt lat="43.58484" lon="6.28663">
        <ele>518.6</ele>
        <time>2018-12-21T15:04:02Z</time>
      </trkpt>
      <trkpt lat="43.58475" lon="6.28656">
        <ele>516.9</ele>
        <time>2018-12-21T15:04:13Z</time>
      </trkpt>
      <trkpt lat="43.58466" lon="6.28651">
        <ele>515.7</ele>
        <time>2018-12-21T15:04:22Z</time>
      </trkpt>
      <trkpt lat="43.58464" lon="6.28637">
        <ele>514.5</ele>
        <time>2018-12-21T15:04:33Z</time>
      </trkpt>
      <trkpt lat="43.58466" lon="6.28624">
        <ele>513.6</ele>
        <time>2018-12-21T15:04:40Z</time>
      </trkpt>
      <trkpt lat="43.58466" lon="6.28611">
        <ele>512.4</ele>
        <time>2018-12-21T15:04:49Z</time>
      </trkpt>
      <trkpt lat="43.58464" lon="6.28597">
        <ele>511</ele>
        <time>2018-12-21T15:05:03Z</time>
      </trkpt>
      <trkpt lat="43.58468" lon="6.28585">
        <ele>509.7</ele>
        <time>2018-12-21T15:05:11Z</time>
      </trkpt>
      <trkpt lat="43.58463" lon="6.28573">
        <ele>509.5</ele>
        <time>2018-12-21T15:05:18Z</time>
      </trkpt>
      <trkpt lat="43.58459" lon="6.28561">
        <ele>508.8</ele>
        <time>2018-12-21T15:05:26Z</time>
      </trkpt>
      <trkpt lat="43.58457" lon="6.28548">
        <ele>508.1</ele>
        <time>2018-12-21T15:05:36Z</time>
      </trkpt>
      <trkpt lat="43.58459" lon="6.28535">
        <ele>507.6</ele>
        <time>2018-12-21T15:05:43Z</time>
      </trkpt>
      <trkpt lat="43.58458" lon="6.28522">
        <ele>506.2</ele>
        <time>2018-12-21T15:05:55Z</time>
      </trkpt>
      <trkpt lat="43.5846" lon="6.28508">
        <ele>505.3</ele>
        <time>2018-12-21T15:06:03Z</time>
      </trkpt>
      <trkpt lat="43.58462" lon="6.28495">
        <ele>504.7</ele>
        <time>2018-12-21T15:06:10Z</time>
      </trkpt>
      <trkpt lat="43.58461" lon="6.28482">
        <ele>503.8</ele>
        <time>2018-12-21T15:06:17Z</time>
      </trkpt>
      <trkpt lat="43.5846" lon="6.28468">
        <ele>502.3</ele>
        <time>2018-12-21T15:06:29Z</time>
      </trkpt>
      <trkpt lat="43.58459" lon="6.28456">
        <ele>500.9</ele>
        <time>2018-12-21T15:06:41Z</time>
      </trkpt>
      <trkpt lat="43.58458" lon="6.28442">
        <ele>499.1</ele>
        <time>2018-12-21T15:06:55Z</time>
      </trkpt>
      <trkpt lat="43.58459" lon="6.28429">
        <ele>497.4</ele>
        <time>2018-12-21T15:07:10Z</time>
      </trkpt>
      <trkpt lat="43.58461" lon="6.28416">
        <ele>496.5</ele>
        <time>2018-12-21T15:07:19Z</time>
      </trkpt>
      <trkpt lat="43.58459" lon="6.28403">
        <ele>494.8</ele>
        <time>2018-12-21T15:07:33Z</time>
      </trkpt>
      <trkpt lat="43.58453" lon="6.28392">
        <ele>493.7</ele>
        <time>2018-12-21T15:07:42Z</time>
      </trkpt>
      <trkpt lat="43.58447" lon="6.28381">
        <ele>492</ele>
        <time>2018-12-21T15:07:53Z</time>
      </trkpt>
      <trkpt lat="43.58441" lon="6.28371">
        <ele>491</ele>
        <time>2018-12-21T15:08:05Z</time>
      </trkpt>
      <trkpt lat="43.58434" lon="6.28362">
        <ele>490.3</ele>
        <time>2018-12-21T15:08:13Z</time>
      </trkpt>
      <trkpt lat="43.58428" lon="6.28353">
        <ele>489.6</ele>
        <time>2018-12-21T15:08:21Z</time>
      </trkpt>
      <trkpt lat="43.5842" lon="6.28344">
        <ele>489.1</ele>
        <time>2018-12-21T15:08:31Z</time>
      </trkpt>
      <trkpt lat="43.58412" lon="6.28337">
        <ele>488.2</ele>
        <time>2018-12-21T15:08:44Z</time>
      </trkpt>
      <trkpt lat="43.58403" lon="6.28331">
        <ele>486.9</ele>
        <time>2018-12-21T15:08:54Z</time>
      </trkpt>
      <trkpt lat="43.58396" lon="6.28322">
        <ele>485.4</ele>
        <time>2018-12-21T15:09:02Z</time>
      </trkpt>
      <trkpt lat="43.58394" lon="6.28309">
        <ele>483.8</ele>
        <time>2018-12-21T15:09:13Z</time>
      </trkpt>
      <trkpt lat="43.58391" lon="6.28297">
        <ele>481.9</ele>
        <time>2018-12-21T15:09:26Z</time>
      </trkpt>
      <trkpt lat="43.58383" lon="6.28291">
        <ele>478.7</ele>
        <time>2018-12-21T15:13:10Z</time>
      </trkpt>
      <trkpt lat="43.58375" lon="6.28286">
        <ele>476</ele>
        <time>2018-12-21T15:13:32Z</time>
      </trkpt>
      <trkpt lat="43.58366" lon="6.28283">
        <ele>473.8</ele>
        <time>2018-12-21T15:14:08Z</time>
      </trkpt>
      <trkpt lat="43.58356" lon="6.28284">
        <ele>472.4</ele>
        <time>2018-12-21T15:14:28Z</time>
      </trkpt>
      <trkpt lat="43.58347" lon="6.28286">
        <ele>471.1</ele>
        <time>2018-12-21T15:14:40Z</time>
      </trkpt>
      <trkpt lat="43.58337" lon="6.28287">
        <ele>468.9</ele>
        <time>2018-12-21T15:14:55Z</time>
      </trkpt>
      <trkpt lat="43.58331" lon="6.28278">
        <ele>466.7</ele>
        <time>2018-12-21T15:15:16Z</time>
      </trkpt>
      <trkpt lat="43.58338" lon="6.28269">
        <ele>464.8</ele>
        <time>2018-12-21T15:15:43Z</time>
      </trkpt>
      <trkpt lat="43.58345" lon="6.2826">
        <ele>463.4</ele>
        <time>2018-12-21T15:15:59Z</time>
      </trkpt>
      <trkpt lat="43.58351" lon="6.2825">
        <ele>462.2</ele>
        <time>2018-12-21T15:16:14Z</time>
      </trkpt>
      <trkpt lat="43.58354" lon="6.28239">
        <ele>461</ele>
        <time>2018-12-21T15:16:28Z</time>
      </trkpt>
      <trkpt lat="43.58352" lon="6.28224">
        <ele>460.3</ele>
        <time>2018-12-21T15:16:38Z</time>
      </trkpt>
      <trkpt lat="43.58348" lon="6.28213">
        <ele>459.7</ele>
        <time>2018-12-21T15:16:47Z</time>
      </trkpt>
      <trkpt lat="43.58351" lon="6.28201">
        <ele>459.1</ele>
        <time>2018-12-21T15:16:55Z</time>
      </trkpt>
      <trkpt lat="43.58355" lon="6.2819">
        <ele>458.6</ele>
        <time>2018-12-21T15:17:05Z</time>
      </trkpt>
      <trkpt lat="43.58362" lon="6.28181">
        <ele>457.3</ele>
        <time>2018-12-21T15:17:16Z</time>
      </trkpt>
      <trkpt lat="43.58367" lon="6.2817">
        <ele>456</ele>
        <time>2018-12-21T15:17:27Z</time>
      </trkpt>
      <trkpt lat="43.58358" lon="6.2817">
        <ele>454.7</ele>
        <time>2018-12-21T15:17:39Z</time>
      </trkpt>
      <trkpt lat="43.58348" lon="6.28172">
        <ele>453.7</ele>
        <time>2018-12-21T15:17:51Z</time>
      </trkpt>
      <trkpt lat="43.58345" lon="6.28184">
        <ele>451.2</ele>
        <time>2018-12-21T15:18:15Z</time>
      </trkpt>
      <trkpt lat="43.58336" lon="6.28184">
        <ele>449.5</ele>
        <time>2018-12-21T15:18:29Z</time>
      </trkpt>
      <trkpt lat="43.58327" lon="6.28185">
        <ele>448.2</ele>
        <time>2018-12-21T15:18:43Z</time>
      </trkpt>
      <trkpt lat="43.58318" lon="6.2819">
        <ele>446</ele>
        <time>2018-12-21T15:19:03Z</time>
      </trkpt>
      <trkpt lat="43.5831" lon="6.28197">
        <ele>444.1</ele>
        <time>2018-12-21T15:19:25Z</time>
      </trkpt>
      <trkpt lat="43.58301" lon="6.28203">
        <ele>442</ele>
        <time>2018-12-21T15:19:42Z</time>
      </trkpt>
      <trkpt lat="43.58292" lon="6.28205">
        <ele>440.2</ele>
        <time>2018-12-21T15:19:57Z</time>
      </trkpt>
      <trkpt lat="43.58286" lon="6.28215">
        <ele>437.2</ele>
        <time>2018-12-21T15:20:27Z</time>
      </trkpt>
      <trkpt lat="43.58278" lon="6.28221">
        <ele>435.3</ele>
        <time>2018-12-21T15:20:41Z</time>
      </trkpt>
      <trkpt lat="43.58272" lon="6.2823">
        <ele>433.3</ele>
        <time>2018-12-21T15:20:59Z</time>
      </trkpt>
      <trkpt lat="43.58262" lon="6.28235">
        <ele>431.9</ele>
        <time>2018-12-21T15:21:12Z</time>
      </trkpt>
      <trkpt lat="43.58254" lon="6.2824">
        <ele>430.1</ele>
        <time>2018-12-21T15:21:24Z</time>
      </trkpt>
      <trkpt lat="43.58245" lon="6.28245">
        <ele>428.6</ele>
        <time>2018-12-21T15:21:37Z</time>
      </trkpt>
      <trkpt lat="43.58236" lon="6.28249">
        <ele>427.1</ele>
        <time>2018-12-21T15:21:53Z</time>
      </trkpt>
      <trkpt lat="43.58229" lon="6.28256">
        <ele>426.2</ele>
        <time>2018-12-21T15:22:08Z</time>
      </trkpt>
      <trkpt lat="43.58219" lon="6.28258">
        <ele>424.5</ele>
        <time>2018-12-21T15:22:23Z</time>
      </trkpt>
      <trkpt lat="43.58222" lon="6.28246">
        <ele>420.6</ele>
        <time>2018-12-21T15:23:01Z</time>
      </trkpt>
      <trkpt lat="43.58228" lon="6.28235">
        <ele>418.8</ele>
        <time>2018-12-21T15:23:17Z</time>
      </trkpt>
      <trkpt lat="43.5823" lon="6.28223">
        <ele>417.8</ele>
        <time>2018-12-21T15:23:31Z</time>
      </trkpt>
      <trkpt lat="43.58231" lon="6.2821">
        <ele>416.6</ele>
        <time>2018-12-21T15:23:45Z</time>
      </trkpt>
      <trkpt lat="43.58232" lon="6.28197">
        <ele>415.7</ele>
        <time>2018-12-21T15:23:59Z</time>
      </trkpt>
      <trkpt lat="43.58236" lon="6.28186">
        <ele>414.3</ele>
        <time>2018-12-21T15:24:14Z</time>
      </trkpt>
      <trkpt lat="43.58243" lon="6.28178">
        <ele>413.7</ele>
        <time>2018-12-21T15:24:21Z</time>
      </trkpt>
      <trkpt lat="43.58249" lon="6.28167">
        <ele>413.5</ele>
        <time>2018-12-21T15:24:29Z</time>
      </trkpt>
      <trkpt lat="43.58254" lon="6.28157">
        <ele>413.2</ele>
        <time>2018-12-21T15:24:42Z</time>
      </trkpt>
      <trkpt lat="43.58262" lon="6.2815">
        <ele>413</ele>
        <time>2018-12-21T15:24:51Z</time>
      </trkpt>
      <trkpt lat="43.58265" lon="6.28138">
        <ele>412</ele>
        <time>2018-12-21T15:25:04Z</time>
      </trkpt>
      <trkpt lat="43.58271" lon="6.28127">
        <ele>410.8</ele>
        <time>2018-12-21T15:25:18Z</time>
      </trkpt>
      <trkpt lat="43.58275" lon="6.28115">
        <ele>410.3</ele>
        <time>2018-12-21T15:25:34Z</time>
      </trkpt>
      <trkpt lat="43.58278" lon="6.28104">
        <ele>408.2</ele>
        <time>2018-12-21T15:26:02Z</time>
      </trkpt>
      <trkpt lat="43.58283" lon="6.28092">
        <ele>407.2</ele>
        <time>2018-12-21T15:26:13Z</time>
      </trkpt>
      <trkpt lat="43.58288" lon="6.28081">
        <ele>405.8</ele>
        <time>2018-12-21T15:26:29Z</time>
      </trkpt>
      <trkpt lat="43.58291" lon="6.28068">
        <ele>404</ele>
        <time>2018-12-21T15:26:44Z</time>
      </trkpt>
      <trkpt lat="43.58296" lon="6.28057">
        <ele>402</ele>
        <time>2018-12-21T15:27:01Z</time>
      </trkpt>
      <trkpt lat="43.58297" lon="6.28044">
        <ele>400.3</ele>
        <time>2018-12-21T15:27:19Z</time>
      </trkpt>
      <trkpt lat="43.58302" lon="6.28031">
        <ele>398.7</ele>
        <time>2018-12-21T15:27:37Z</time>
      </trkpt>
      <trkpt lat="43.58301" lon="6.28019">
        <ele>396.9</ele>
        <time>2018-12-21T15:27:54Z</time>
      </trkpt>
      <trkpt lat="43.58304" lon="6.28007">
        <ele>395</ele>
        <time>2018-12-21T15:28:35Z</time>
      </trkpt>
      <trkpt lat="43.58307" lon="6.27995">
        <ele>393.4</ele>
        <time>2018-12-21T15:28:51Z</time>
      </trkpt>
      <trkpt lat="43.58304" lon="6.27983">
        <ele>391.4</ele>
        <time>2018-12-21T15:29:12Z</time>
      </trkpt>
      <trkpt lat="43.58302" lon="6.27971">
        <ele>389.1</ele>
        <time>2018-12-21T15:29:27Z</time>
      </trkpt>
      <trkpt lat="43.58296" lon="6.27961">
        <ele>385.5</ele>
        <time>2018-12-21T15:29:50Z</time>
      </trkpt>
      <trkpt lat="43.58292" lon="6.2795">
        <ele>383.2</ele>
        <time>2018-12-21T15:30:07Z</time>
      </trkpt>
      <trkpt lat="43.58284" lon="6.27942">
        <ele>380.9</ele>
        <time>2018-12-21T15:30:26Z</time>
      </trkpt>
      <trkpt lat="43.58279" lon="6.27931">
        <ele>378.6</ele>
        <time>2018-12-21T15:30:43Z</time>
      </trkpt>
      <trkpt lat="43.58273" lon="6.27922">
        <ele>377.3</ele>
        <time>2018-12-21T15:31:00Z</time>
      </trkpt>
      <trkpt lat="43.58275" lon="6.27909">
        <ele>376.8</ele>
        <time>2018-12-21T15:31:07Z</time>
      </trkpt>
      <trkpt lat="43.58277" lon="6.27896">
        <ele>375.5</ele>
        <time>2018-12-21T15:31:19Z</time>
      </trkpt>
      <trkpt lat="43.5828" lon="6.27884">
        <ele>374.3</ele>
        <time>2018-12-21T15:31:30Z</time>
      </trkpt>
      <trkpt lat="43.58286" lon="6.2787">
        <ele>372.5</ele>
        <time>2018-12-21T15:31:42Z</time>
      </trkpt>
      <trkpt lat="43.58289" lon="6.27859">
        <ele>371.7</ele>
        <time>2018-12-21T15:31:52Z</time>
      </trkpt>
      <trkpt lat="43.58296" lon="6.27851">
        <ele>371.2</ele>
        <time>2018-12-21T15:32:05Z</time>
      </trkpt>
      <trkpt lat="43.58304" lon="6.27842">
        <ele>370.8</ele>
        <time>2018-12-21T15:32:13Z</time>
      </trkpt>
      <trkpt lat="43.58312" lon="6.27834">
        <ele>370.6</ele>
        <time>2018-12-21T15:32:23Z</time>
      </trkpt>
      <trkpt lat="43.58321" lon="6.27827">
        <ele>369</ele>
        <time>2018-12-21T15:32:46Z</time>
      </trkpt>
      <trkpt lat="43.58327" lon="6.27816">
        <ele>368.3</ele>
        <time>2018-12-21T15:33:01Z</time>
      </trkpt>
      <trkpt lat="43.58333" lon="6.27804">
        <ele>366.7</ele>
        <time>2018-12-21T15:33:11Z</time>
      </trkpt>
      <trkpt lat="43.58331" lon="6.2779">
        <ele>365.7</ele>
        <time>2018-12-21T15:33:21Z</time>
      </trkpt>
      <trkpt lat="43.58329" lon="6.27778">
        <ele>364</ele>
        <time>2018-12-21T15:33:34Z</time>
      </trkpt>
      <trkpt lat="43.58331" lon="6.27766">
        <ele>362.9</ele>
        <time>2018-12-21T15:33:41Z</time>
      </trkpt>
      <trkpt lat="43.58332" lon="6.27753">
        <ele>361.5</ele>
        <time>2018-12-21T15:33:52Z</time>
      </trkpt>
      <trkpt lat="43.58325" lon="6.27743">
        <ele>360.2</ele>
        <time>2018-12-21T15:34:00Z</time>
      </trkpt>
      <trkpt lat="43.5832" lon="6.27732">
        <ele>359.2</ele>
        <time>2018-12-21T15:34:12Z</time>
      </trkpt>
      <trkpt lat="43.58317" lon="6.2772">
        <ele>357.9</ele>
        <time>2018-12-21T15:34:34Z</time>
      </trkpt>
      <trkpt lat="43.58327" lon="6.27723">
        <ele>356.1</ele>
        <time>2018-12-21T15:34:45Z</time>
      </trkpt>
      <trkpt lat="43.58336" lon="6.27725">
        <ele>354.7</ele>
        <time>2018-12-21T15:34:55Z</time>
      </trkpt>
      <trkpt lat="43.58346" lon="6.27722">
        <ele>353.7</ele>
        <time>2018-12-21T15:35:03Z</time>
      </trkpt>
      <trkpt lat="43.58354" lon="6.27716">
        <ele>353.4</ele>
        <time>2018-12-21T15:35:10Z</time>
      </trkpt>
      <trkpt lat="43.58359" lon="6.27704">
        <ele>352.7</ele>
        <time>2018-12-21T15:35:20Z</time>
      </trkpt>
      <trkpt lat="43.58357" lon="6.27692">
        <ele>352.7</ele>
        <time>2018-12-21T15:35:32Z</time>
      </trkpt>
      <trkpt lat="43.58362" lon="6.27682">
        <ele>353</ele>
        <time>2018-12-21T15:35:39Z</time>
      </trkpt>
      <trkpt lat="43.58366" lon="6.27671">
        <ele>353.3</ele>
        <time>2018-12-21T15:35:48Z</time>
      </trkpt>
      <trkpt lat="43.58368" lon="6.27658">
        <ele>353.8</ele>
        <time>2018-12-21T15:35:59Z</time>
      </trkpt>
      <trkpt lat="43.58373" lon="6.27645">
        <ele>353.7</ele>
        <time>2018-12-21T15:36:08Z</time>
      </trkpt>
      <trkpt lat="43.58379" lon="6.27635">
        <ele>353.8</ele>
        <time>2018-12-21T15:36:19Z</time>
      </trkpt>
      <trkpt lat="43.58386" lon="6.27625">
        <ele>353.7</ele>
        <time>2018-12-21T15:36:34Z</time>
      </trkpt>
      <trkpt lat="43.58383" lon="6.27612">
        <ele>354.2</ele>
        <time>2018-12-21T15:38:44Z</time>
      </trkpt>
      <trkpt lat="43.58383" lon="6.27599">
        <ele>354.4</ele>
        <time>2018-12-21T15:38:55Z</time>
      </trkpt>
      <trkpt lat="43.58385" lon="6.27587">
        <ele>354</ele>
        <time>2018-12-21T15:39:00Z</time>
      </trkpt>
      <trkpt lat="43.5838" lon="6.27576">
        <ele>354.1</ele>
        <time>2018-12-21T15:39:09Z</time>
      </trkpt>
      <trkpt lat="43.58374" lon="6.27566">
        <ele>354.4</ele>
        <time>2018-12-21T15:39:17Z</time>
      </trkpt>
      <trkpt lat="43.58377" lon="6.27554">
        <ele>354.7</ele>
        <time>2018-12-21T15:41:26Z</time>
      </trkpt>
      <trkpt lat="43.58367" lon="6.27554">
        <ele>353.8</ele>
        <time>2018-12-21T15:42:23Z</time>
      </trkpt>
      <trkpt lat="43.58359" lon="6.27547">
        <ele>354.2</ele>
        <time>2018-12-21T15:42:34Z</time>
      </trkpt>
      <trkpt lat="43.58362" lon="6.27543">
        <ele>354.8</ele>
        <time>2018-12-21T15:43:48Z</time>
      </trkpt>
    </trkseg>
  </trk>
</gpx>